createdAt,value
2019-03-08T00:01:27.823Z,5.80
2019-03-08T00:03:58.404Z,5.70
2019-03-08T00:06:29.254Z,5.80
2019-03-08T00:08:59.836Z,5.70
2019-03-08T00:11:30.478Z,5.70
2019-03-08T00:14:00.944Z,5.70
2019-03-08T00:16:31.399Z,5.70
2019-03-08T00:19:02.046Z,5.60
2019-03-08T00:21:32.435Z,5.60
2019-03-08T00:24:02.955Z,5.60
2019-03-08T00:26:33.398Z,5.60
2019-03-08T00:29:05.875Z,5.70
2019-03-08T00:31:36.550Z,5.80
2019-03-08T00:34:07.189Z,5.80
2019-03-08T00:36:37.787Z,5.80
2019-03-08T00:39:08.661Z,5.80
2019-03-08T00:41:38.995Z,5.80
2019-03-08T00:44:09.461Z,5.80
2019-03-08T00:46:39.910Z,5.80
2019-03-08T00:49:10.334Z,5.80
2019-03-08T00:51:40.760Z,5.70
2019-03-08T00:54:11.012Z,5.70
2019-03-08T00:56:41.457Z,5.70
2019-03-08T00:59:11.899Z,5.70
2019-03-08T01:01:42.310Z,5.70
2019-03-08T01:04:12.677Z,5.70
2019-03-08T01:06:43.024Z,5.80
2019-03-08T01:09:13.529Z,5.80
2019-03-08T01:11:45.318Z,5.80
2019-03-08T01:14:15.984Z,5.90
2019-03-08T01:16:46.445Z,5.80
2019-03-08T01:19:16.885Z,5.90
2019-03-08T01:21:47.300Z,5.90
2019-03-08T01:24:17.657Z,5.90
2019-03-08T01:26:47.945Z,5.90
2019-03-08T01:29:18.342Z,6.00
2019-03-08T01:31:48.609Z,6.00
2019-03-08T01:34:19.087Z,6.00
2019-03-08T01:36:49.410Z,6.00
2019-03-08T01:39:19.787Z,6.00
2019-03-08T01:41:50.209Z,6.00
2019-03-08T01:44:20.682Z,6.00
2019-03-08T01:46:51.115Z,6.00
2019-03-08T01:49:21.813Z,6.00
2019-03-08T01:51:52.304Z,6.00
2019-03-08T01:54:22.663Z,6.10
2019-03-08T01:56:53.011Z,6.10
2019-03-08T01:59:23.411Z,6.00
2019-03-08T02:01:54.037Z,6.00
2019-03-08T02:04:24.417Z,5.90
2019-03-08T02:06:54.844Z,6.00
2019-03-08T02:09:25.239Z,6.00
2019-03-08T02:11:55.576Z,6.00
2019-03-08T02:14:26.438Z,6.00
2019-03-08T02:16:56.902Z,6.00
2019-03-08T02:19:27.335Z,6.00
2019-03-08T02:21:57.742Z,6.10
2019-03-08T02:24:28.092Z,6.10
2019-03-08T02:26:58.739Z,6.10
2019-03-08T02:29:29.085Z,6.10
2019-03-08T02:31:59.536Z,6.10
2019-03-08T02:34:29.983Z,6.20
2019-03-08T02:37:00.438Z,6.30
2019-03-08T02:39:30.751Z,6.30
2019-03-08T02:42:01.176Z,6.40
2019-03-08T02:44:31.632Z,6.50
2019-03-08T02:47:02.097Z,6.60
2019-03-08T02:49:32.483Z,6.60
2019-03-08T02:52:03.759Z,6.70
2019-03-08T02:54:34.560Z,6.70
2019-03-08T02:57:05.332Z,6.80
2019-03-08T02:59:35.610Z,6.90
2019-03-08T03:02:06.001Z,6.80
2019-03-08T03:04:36.420Z,6.90
2019-03-08T03:07:06.850Z,6.90
2019-03-08T03:09:37.294Z,6.80
2019-03-08T03:12:07.793Z,6.80
2019-03-08T03:14:38.176Z,6.80
2019-03-08T03:17:08.599Z,6.80
2019-03-08T03:19:38.864Z,6.80
2019-03-08T03:22:09.295Z,6.90
2019-03-08T03:24:39.721Z,6.90
2019-03-08T03:27:10.165Z,6.90
2019-03-08T03:29:40.359Z,6.80
2019-03-08T03:32:10.714Z,6.80
2019-03-08T03:34:41.196Z,6.70
2019-03-08T03:37:11.626Z,6.70
2019-03-08T03:39:42.113Z,6.70
2019-03-08T03:42:12.593Z,6.70
2019-03-08T03:44:43.242Z,6.60
2019-03-08T03:47:13.656Z,6.60
2019-03-08T03:49:44.091Z,6.60
2019-03-08T03:52:14.515Z,6.60
2019-03-08T03:54:44.845Z,6.60
2019-03-08T03:57:15.623Z,6.60
2019-03-08T03:59:45.989Z,6.60
2019-03-08T04:02:16.391Z,6.60
2019-03-08T04:04:46.835Z,6.60
2019-03-08T04:07:17.249Z,6.70
2019-03-08T04:09:47.902Z,6.60
2019-03-08T04:12:18.388Z,6.60
2019-03-08T04:14:48.719Z,6.60
2019-03-08T04:17:19.192Z,6.50
2019-03-08T04:19:49.786Z,6.50
2019-03-08T04:22:20.581Z,6.40
2019-03-08T04:24:51.070Z,6.40
2019-03-08T04:27:21.511Z,6.30
2019-03-08T04:29:51.826Z,6.20
2019-03-08T04:32:22.232Z,6.10
2019-03-08T04:34:52.742Z,6.10
2019-03-08T04:37:23.172Z,6.20
2019-03-08T04:39:53.565Z,6.20
2019-03-08T04:42:23.968Z,6.10
2019-03-08T04:44:54.383Z,6.10
2019-03-08T04:47:24.772Z,6.10
2019-03-08T04:49:55.123Z,6.10
2019-03-08T04:52:25.372Z,6.20
2019-03-08T04:54:55.829Z,6.30
2019-03-08T04:57:26.179Z,6.30
2019-03-08T04:59:56.594Z,6.30
2019-03-08T05:02:28.624Z,6.30
2019-03-08T05:04:59.107Z,6.20
2019-03-08T05:07:29.523Z,6.20
2019-03-08T05:09:59.891Z,6.10
2019-03-08T05:12:31.046Z,6.10
2019-03-08T05:15:01.728Z,6.00
2019-03-08T05:17:32.030Z,6.00
2019-03-08T05:20:02.360Z,6.10
2019-03-08T05:22:32.865Z,6.20
2019-03-08T05:25:03.446Z,6.10
2019-03-08T05:27:34.112Z,6.10
2019-03-08T05:30:04.823Z,6.00
2019-03-08T05:32:35.204Z,6.00
2019-03-08T05:35:06.716Z,6.00
2019-03-08T05:37:37.027Z,6.00
2019-03-08T05:40:08.443Z,6.00
2019-03-08T05:42:38.908Z,5.90
2019-03-08T05:45:09.303Z,5.80
2019-03-08T05:47:39.733Z,5.80
2019-03-08T05:50:10.967Z,5.80
2019-03-08T05:52:41.502Z,5.70
2019-03-08T05:55:11.952Z,5.70
2019-03-08T05:57:42.598Z,5.70
2019-03-08T06:00:14.668Z,5.80
2019-03-08T06:02:45.091Z,5.80
2019-03-08T06:05:15.371Z,5.90
2019-03-08T06:07:45.795Z,5.90
2019-03-08T06:10:36.908Z,6.00
2019-03-08T06:13:08.520Z,6.10
2019-03-08T06:15:39.141Z,6.10
2019-03-08T06:18:09.543Z,6.20
2019-03-08T06:20:39.995Z,6.20
2019-03-08T06:23:10.391Z,6.40
2019-03-08T06:25:40.817Z,6.50
2019-03-08T06:28:11.301Z,6.60
2019-03-08T06:30:41.754Z,6.80
2019-03-08T06:33:12.123Z,6.80
2019-03-08T06:35:42.587Z,6.90
2019-03-08T06:38:12.884Z,6.90
2019-03-08T06:40:43.313Z,7.00
2019-03-08T06:43:13.985Z,7.00
2019-03-08T06:45:44.468Z,7.10
2019-03-08T06:48:14.922Z,7.10
2019-03-08T06:50:45.441Z,7.20
2019-03-08T06:53:15.834Z,7.20
2019-03-08T06:55:46.617Z,7.20
2019-03-08T06:58:25.206Z,7.30
2019-03-08T07:01:14.446Z,7.50
2019-03-08T07:03:44.811Z,7.70
2019-03-08T07:06:15.279Z,7.80
2019-03-08T07:08:45.603Z,8.00
2019-03-08T07:11:16.045Z,8.40
2019-03-08T07:13:46.434Z,8.20
2019-03-08T07:16:16.747Z,8.30
2019-03-08T07:18:47.505Z,8.40
2019-03-08T07:21:39.880Z,8.50
2019-03-08T07:24:16.319Z,8.70
2019-03-08T07:27:05.961Z,9.00
2019-03-08T07:29:54.024Z,9.60
2019-03-08T07:32:49.421Z,10.20
2019-03-08T07:35:28.611Z,10.60
2019-03-08T07:38:29.919Z,10.80
2019-03-08T07:41:31.203Z,10.70
2019-03-08T07:44:22.396Z,10.20
2019-03-08T07:47:17.741Z,10.00
2019-03-08T07:50:07.067Z,10.10
2019-03-08T07:53:05.742Z,10.00
2019-03-08T07:55:53.938Z,11.00
2019-03-08T07:58:51.955Z,12.40
2019-03-08T08:01:27.639Z,12.60
2019-03-08T08:04:15.624Z,13.60
2019-03-08T08:07:17.159Z,13.20
2019-03-08T08:10:03.505Z,12.50
2019-03-08T08:12:50.124Z,11.90
2019-03-08T08:15:37.555Z,12.40
2019-03-08T08:18:45.534Z,14.40
2019-03-08T08:21:23.145Z,15.90
2019-03-08T08:23:59.359Z,15.30
2019-03-08T08:26:51.186Z,13.80
2019-03-08T08:29:46.699Z,13.60
2019-03-08T08:32:39.881Z,16.00
2019-03-08T08:35:28.234Z,17.30
2019-03-08T08:38:21.105Z,19.50
2019-03-08T08:41:09.145Z,18.20
2019-03-08T08:43:58.967Z,16.40
2019-03-08T08:46:51.347Z,14.70
2019-03-08T08:49:42.169Z,13.80
2019-03-08T08:52:31.669Z,14.00
2019-03-08T08:55:15.691Z,14.00
2019-03-08T08:58:14.487Z,13.60
2019-03-08T09:01:12.887Z,13.10
2019-03-08T09:03:51.482Z,13.20
2019-03-08T09:06:47.345Z,13.40
2019-03-08T09:09:43.176Z,13.40
2019-03-08T09:12:31.169Z,13.10
2019-03-08T09:15:08.607Z,13.60
2019-03-08T09:17:50.083Z,13.60
2019-03-08T09:20:38.044Z,13.30
2019-03-08T09:23:24.311Z,12.90
2019-03-08T09:26:12.873Z,12.50
2019-03-08T09:28:54.599Z,12.70
2019-03-08T09:31:34.033Z,15.00
2019-03-08T09:34:23.557Z,16.40
2019-03-08T09:37:06.706Z,18.00
2019-03-08T09:39:54.950Z,17.90
2019-03-08T09:43:02.615Z,18.30
2019-03-08T09:45:57.927Z,17.70
2019-03-08T09:48:48.923Z,17.50
2019-03-08T09:51:40.063Z,16.20
2019-03-08T09:54:18.531Z,16.10
2019-03-08T09:57:02.620Z,16.30
2019-03-08T09:59:58.202Z,16.90
2019-03-08T10:02:53.515Z,16.60
2019-03-08T10:05:31.552Z,19.60
2019-03-08T10:08:17.349Z,21.40
2019-03-08T10:10:58.505Z,22.00
2019-03-08T10:13:53.998Z,23.00
2019-03-08T10:16:29.369Z,22.10
2019-03-08T10:19:08.676Z,20.50
2019-03-08T10:21:56.947Z,19.90
2019-03-08T10:24:49.245Z,19.00
2019-03-08T10:27:37.600Z,20.30
2019-03-08T10:30:32.063Z,21.70
2019-03-08T10:33:20.516Z,22.60
2019-03-08T10:36:12.903Z,23.00
2019-03-08T10:39:01.096Z,21.00
2019-03-08T10:41:47.210Z,20.00
2019-03-08T10:44:42.263Z,19.50
2019-03-08T10:47:55.618Z,19.10
2019-03-08T10:50:36.640Z,18.00
2019-03-08T10:53:35.165Z,16.50
2019-03-08T10:56:18.238Z,15.90
2019-03-08T10:59:13.770Z,15.30
2019-03-08T11:01:52.217Z,15.20
2019-03-08T11:04:40.018Z,15.20
2019-03-08T11:07:21.796Z,15.00
2019-03-08T11:10:23.229Z,14.40
2019-03-08T11:13:21.821Z,14.20
2019-03-08T11:16:25.046Z,14.10
2019-03-08T11:19:16.110Z,14.10
2019-03-08T11:21:59.963Z,14.10
2019-03-08T11:24:50.288Z,13.70
2019-03-08T11:27:38.690Z,13.40
2019-03-08T11:30:38.416Z,13.20
2019-03-08T11:33:33.799Z,13.20
2019-03-08T11:36:23.138Z,13.00
2019-03-08T11:39:11.929Z,13.00
2019-03-08T11:42:10.724Z,12.60
2019-03-08T11:45:09.090Z,12.80
2019-03-08T11:47:56.702Z,12.60
2019-03-08T11:50:46.462Z,12.30
2019-03-08T11:53:36.165Z,11.80
2019-03-08T11:56:25.403Z,11.40
2019-03-08T11:59:26.755Z,11.60
2019-03-08T12:02:22.779Z,11.60
2019-03-08T12:05:00.732Z,11.60
2019-03-08T12:07:51.793Z,11.90
2019-03-08T12:10:30.594Z,12.10
2019-03-08T12:13:16.612Z,12.50
2019-03-08T12:16:12.224Z,12.90
2019-03-08T12:19:00.270Z,13.10
2019-03-08T12:22:01.757Z,13.00
2019-03-08T12:24:40.106Z,13.20
2019-03-08T12:27:32.845Z,13.80
2019-03-08T12:30:33.020Z,14.00
2019-03-08T12:33:28.144Z,13.80
2019-03-08T12:36:06.225Z,14.50
2019-03-08T12:38:50.906Z,14.90
2019-03-08T12:41:49.154Z,14.90
2019-03-08T12:44:25.379Z,14.60
2019-03-08T12:47:11.434Z,14.00
2019-03-08T12:50:15.911Z,13.40
2019-03-08T12:53:08.164Z,13.10
2019-03-08T12:56:13.661Z,12.70
2019-03-08T12:59:02.885Z,12.30
2019-03-08T13:01:40.499Z,12.20
2019-03-08T13:04:28.572Z,12.30
2019-03-08T13:07:18.502Z,12.80
2019-03-08T13:09:48.960Z,12.90
2019-03-08T13:12:19.877Z,13.10
2019-03-08T13:14:50.335Z,13.60
2019-03-08T13:17:21.005Z,13.80
2019-03-08T13:19:51.452Z,13.80
2019-03-08T13:22:22.212Z,14.00
2019-03-08T13:24:52.630Z,14.10
2019-03-08T13:27:23.105Z,13.80
2019-03-08T13:29:53.602Z,13.40
2019-03-08T13:32:24.201Z,13.40
2019-03-08T13:34:55.054Z,13.30
2019-03-08T13:37:25.492Z,12.90
2019-03-08T13:39:55.964Z,12.90
2019-03-08T13:42:26.275Z,13.10
2019-03-08T13:44:56.713Z,12.90
2019-03-08T13:47:27.060Z,13.00
2019-03-08T13:49:57.472Z,13.20
2019-03-08T13:52:27.890Z,13.10
2019-03-08T13:54:58.343Z,13.30
2019-03-08T13:57:28.838Z,13.10
2019-03-08T13:59:59.308Z,13.00
2019-03-08T14:02:29.649Z,13.20
2019-03-08T14:05:00.066Z,13.20
2019-03-08T14:07:30.463Z,13.10
2019-03-08T14:10:00.830Z,12.90
2019-03-08T14:12:31.208Z,12.80
2019-03-08T14:15:01.635Z,12.50
2019-03-08T14:17:32.046Z,12.30
2019-03-08T14:20:09.425Z,12.20
2019-03-08T14:22:39.881Z,12.10
2019-03-08T14:25:10.481Z,12.10
2019-03-08T14:27:40.929Z,12.00
2019-03-08T14:30:14.420Z,11.80
2019-03-08T14:32:45.177Z,11.80
2019-03-08T14:35:16.161Z,11.80
2019-03-08T14:37:46.518Z,11.90
2019-03-08T14:40:35.011Z,12.10
2019-03-08T14:43:20.104Z,12.20
2019-03-08T14:46:01.592Z,12.10
2019-03-08T14:48:32.050Z,11.90
2019-03-08T14:51:02.697Z,11.70
2019-03-08T14:53:34.327Z,11.60
2019-03-08T14:56:04.887Z,11.50
2019-03-08T14:58:36.761Z,11.30
2019-03-08T15:01:07.458Z,11.30
2019-03-08T15:03:43.409Z,11.20
2019-03-08T15:06:09.952Z,11.20
2019-03-08T15:08:40.341Z,11.20
2019-03-08T15:11:10.971Z,11.20
2019-03-08T15:13:42.489Z,11.20
2019-03-08T15:16:12.912Z,11.10
2019-03-08T15:18:43.343Z,11.10
2019-03-08T15:21:13.771Z,11.10
2019-03-08T15:23:44.187Z,11.20
2019-03-08T15:26:14.798Z,11.20
2019-03-08T15:28:45.162Z,11.20
2019-03-08T15:31:15.624Z,11.30
2019-03-08T15:33:45.998Z,11.50
2019-03-08T15:36:16.326Z,11.50
2019-03-08T15:38:46.655Z,11.60
2019-03-08T15:41:17.122Z,11.50
2019-03-08T15:43:51.341Z,11.50
2019-03-08T15:46:22.338Z,11.30
2019-03-08T15:48:53.135Z,11.10
2019-03-08T15:51:25.197Z,10.80
2019-03-08T15:53:55.981Z,10.50
2019-03-08T15:56:26.452Z,10.50
2019-03-08T15:59:06.329Z,10.50
2019-03-08T16:01:36.759Z,10.60
2019-03-08T16:04:08.232Z,10.70
2019-03-08T16:06:39.856Z,10.70
2019-03-08T16:09:11.634Z,10.60
2019-03-08T16:11:42.121Z,10.50
2019-03-08T16:14:12.415Z,10.40
2019-03-08T16:16:42.869Z,10.10
2019-03-08T16:19:13.217Z,10.00
2019-03-08T16:21:46.725Z,10.00
2019-03-08T16:24:15.744Z,9.80
2019-03-08T16:26:46.223Z,9.80
2019-03-08T16:29:16.963Z,9.80
2019-03-08T16:32:05.968Z,9.80
2019-03-08T16:34:36.312Z,9.90
2019-03-08T16:37:14.757Z,9.90
2019-03-08T16:40:24.160Z,9.80
2019-03-08T16:43:16.077Z,9.70
2019-03-08T16:45:56.316Z,9.70
2019-03-08T16:48:40.318Z,9.70
2019-03-08T16:51:39.726Z,9.50
2019-03-08T16:54:26.792Z,9.40
2019-03-08T16:57:11.900Z,9.40
2019-03-08T17:00:04.259Z,9.20
2019-03-08T17:03:02.991Z,9.10
2019-03-08T17:06:01.282Z,9.00
2019-03-08T17:08:42.127Z,9.00
2019-03-08T17:11:43.477Z,9.00
2019-03-08T17:14:41.664Z,9.00
2019-03-08T17:17:37.001Z,9.00
2019-03-08T17:20:14.025Z,9.00
2019-03-08T17:23:03.344Z,9.00
2019-03-08T17:25:45.922Z,9.00
2019-03-08T17:28:35.192Z,9.00
2019-03-08T17:31:24.426Z,9.00
2019-03-08T17:34:14.552Z,8.90
2019-03-08T17:36:53.729Z,9.00
2019-03-08T17:39:45.942Z,9.00
2019-03-08T17:42:38.765Z,8.80
2019-03-08T17:45:27.664Z,8.90
2019-03-08T17:48:20.134Z,8.90
2019-03-08T17:51:08.464Z,8.90
2019-03-08T17:53:48.145Z,8.90
2019-03-08T17:56:43.985Z,8.70
2019-03-08T17:59:23.937Z,8.70
2019-03-08T18:02:19.411Z,8.50
2019-03-08T18:05:11.843Z,8.30
2019-03-08T18:08:13.641Z,8.20
2019-03-08T18:11:18.172Z,8.10
2019-03-08T18:14:10.786Z,8.00
2019-03-08T18:16:58.682Z,7.80
2019-03-08T18:19:47.998Z,7.70
2019-03-08T18:22:34.589Z,7.60
2019-03-08T18:25:22.208Z,7.50
2019-03-08T18:28:11.592Z,7.50
2019-03-08T18:31:07.170Z,7.50
2019-03-08T18:33:55.070Z,7.50
2019-03-08T18:36:44.532Z,7.40
2019-03-08T18:39:33.785Z,7.30
2019-03-08T18:42:13.232Z,7.30
2019-03-08T18:45:09.644Z,7.20
2019-03-08T18:47:58.902Z,7.20
2019-03-08T18:50:55.064Z,7.10
2019-03-08T18:53:36.574Z,7.10
2019-03-08T18:56:40.929Z,7.00
2019-03-08T18:59:39.373Z,6.90
2019-03-08T19:02:22.467Z,6.90
2019-03-08T19:05:03.441Z,6.80
2019-03-08T19:07:58.831Z,6.80
2019-03-08T19:10:50.893Z,6.70
2019-03-08T19:13:36.296Z,6.70
2019-03-08T19:16:25.746Z,6.60
2019-03-08T19:19:23.928Z,6.60
2019-03-08T19:22:00.405Z,6.60
2019-03-08T19:24:48.385Z,6.50
2019-03-08T19:27:27.365Z,6.50
2019-03-08T19:30:18.771Z,6.50
2019-03-08T19:33:26.618Z,6.40
2019-03-08T19:36:04.991Z,6.30
2019-03-08T19:39:00.288Z,6.30
2019-03-08T19:41:49.633Z,6.30
2019-03-08T19:44:41.690Z,6.30
2019-03-08T19:47:25.829Z,6.20
2019-03-08T19:50:23.585Z,6.00
2019-03-08T19:53:11.561Z,6.00
2019-03-08T19:56:10.137Z,6.00
2019-03-08T19:59:02.099Z,6.00
2019-03-08T20:01:41.403Z,6.00
2019-03-08T20:04:33.622Z,6.00
2019-03-08T20:07:31.972Z,6.00
2019-03-08T20:10:24.049Z,5.90
2019-03-08T20:13:12.306Z,5.80
2019-03-08T20:16:02.926Z,5.90
2019-03-08T20:19:04.309Z,5.80
2019-03-08T20:21:51.859Z,5.80
2019-03-08T20:24:39.942Z,5.80
2019-03-08T20:27:38.242Z,5.70
2019-03-08T20:30:29.515Z,5.60
2019-03-08T20:33:17.522Z,5.60
2019-03-08T20:36:09.567Z,5.60
2019-03-08T20:38:57.630Z,5.60
2019-03-08T20:41:46.933Z,5.60
2019-03-08T20:44:24.529Z,5.50
2019-03-08T20:47:02.071Z,5.40
2019-03-08T20:49:32.519Z,5.40
2019-03-08T20:52:02.778Z,5.40
2019-03-08T20:54:33.095Z,5.30
2019-03-08T20:57:03.537Z,5.40
2019-03-08T20:59:34.023Z,5.40
2019-03-08T21:02:04.453Z,5.40
2019-03-08T21:04:35.057Z,5.40
2019-03-08T21:07:06.677Z,5.50
2019-03-08T21:09:37.160Z,5.40
2019-03-08T21:12:07.588Z,5.40
2019-03-08T21:14:38.044Z,5.40
2019-03-08T21:17:08.817Z,5.30
2019-03-08T21:19:39.481Z,5.30
2019-03-08T21:22:09.926Z,5.30
2019-03-08T21:24:40.307Z,5.30
2019-03-08T21:27:10.681Z,5.30
2019-03-08T21:29:41.177Z,5.30
2019-03-08T21:32:14.192Z,5.30
2019-03-08T21:34:44.531Z,5.30
2019-03-08T21:37:14.842Z,5.20
2019-03-08T21:39:45.133Z,5.20
2019-03-08T21:42:15.613Z,5.20
2019-03-08T21:44:45.984Z,5.10
2019-03-08T21:47:16.555Z,5.00
2019-03-08T21:49:47.199Z,5.00
2019-03-08T21:52:17.628Z,5.00
2019-03-08T21:54:48.472Z,4.90
2019-03-08T21:57:19.019Z,4.80
2019-03-08T21:59:49.411Z,4.90
2019-03-08T22:02:19.832Z,4.90
2019-03-08T22:04:56.666Z,4.90
2019-03-08T22:07:27.072Z,4.90
2019-03-08T22:10:16.412Z,4.90
2019-03-08T22:12:46.759Z,4.90
2019-03-08T22:15:17.215Z,4.90
2019-03-08T22:17:47.536Z,4.90
2019-03-08T22:20:17.901Z,4.90
2019-03-08T22:22:48.339Z,4.90
2019-03-08T22:25:20.255Z,4.90
2019-03-08T22:27:50.718Z,4.90
2019-03-08T22:30:21.211Z,5.00
2019-03-08T22:32:51.711Z,5.00
2019-03-08T22:35:22.185Z,5.00
2019-03-08T22:37:52.897Z,5.00
2019-03-08T22:40:23.316Z,5.00
2019-03-08T22:42:54.130Z,5.10
2019-03-08T22:45:24.565Z,5.10
2019-03-08T22:47:55.007Z,5.00
2019-03-08T22:50:25.771Z,5.00
2019-03-08T22:52:56.249Z,5.10
2019-03-08T22:55:26.757Z,5.10
2019-03-08T22:57:57.255Z,5.20
2019-03-08T23:00:52.497Z,5.20
2019-03-08T23:03:23.405Z,5.30
2019-03-08T23:05:53.834Z,5.30
2019-03-08T23:08:24.118Z,5.30
2019-03-08T23:10:54.728Z,5.40
2019-03-08T23:13:25.336Z,5.40
2019-03-08T23:15:55.767Z,5.40
2019-03-08T23:18:26.328Z,5.40
2019-03-08T23:20:56.604Z,5.40
2019-03-08T23:23:27.029Z,5.40
2019-03-08T23:25:57.385Z,5.40
2019-03-08T23:28:46.850Z,5.40
2019-03-08T23:31:22.816Z,5.30
2019-03-08T23:33:53.280Z,5.20
2019-03-08T23:36:23.661Z,5.30
2019-03-08T23:38:54.341Z,5.30
2019-03-08T23:41:25.035Z,5.30
2019-03-08T23:43:55.409Z,5.40
2019-03-08T23:46:25.899Z,5.40
2019-03-08T23:48:56.437Z,5.40
2019-03-08T23:51:26.898Z,5.50
2019-03-08T23:53:57.452Z,5.50
2019-03-08T23:56:27.914Z,5.60
2019-03-08T23:58:58.358Z,5.60
